Time;durP1;ratioP1;P1;durP2;ratioP2;P2;SDS_P1;SDS_P2;PMS_P1;PMS_P2;Temp;Humidity;BMP_temperature;BMP_pressure;BME280_temperature;BME280_humidity;BME280_pressure;Samples;Min_cycle;Max_cycle;Signal;HPM_P1;HPM_P2
2023/06/22 00:01:02;;;;;;;17.85;9.18;;;19.50;92.50;;;;;;5019030;28;20084;-72
2023/06/22 00:03:28;;;;;;;14.25;8.70;;;19.40;92.10;;;;;;5018651;28;20108;-73
2023/06/22 00:05:54;;;;;;;18.05;8.23;;;19.30;91.70;;;;;;5018958;28;20026;-73
2023/06/22 00:08:19;;;;;;;15.32;9.00;;;19.20;91.50;;;;;;5016406;28;20026;-72
2023/06/22 00:10:46;;;;;;;15.77;8.80;;;19.20;91.10;;;;;;5018202;28;20445;-73
2023/06/22 00:13:13;;;;;;;19.58;8.60;;;19.10;90.70;;;;;;5018837;28;20105;-72
2023/06/22 00:15:40;;;;;;;17.35;9.20;;;19.00;90.50;;;;;;5015131;28;20029;-72
2023/06/22 00:18:10;;;;;;;12.68;8.00;;;18.90;90.00;;;;;;5016452;28;20054;-72
2023/06/22 00:20:38;;;;;;;12.23;7.93;;;18.80;89.40;;;;;;5018454;28;20053;-72
2023/06/22 00:23:09;;;;;;;13.68;8.15;;;18.70;89.20;;;;;;5016272;28;20033;-72
2023/06/22 00:25:41;;;;;;;16.48;8.45;;;18.60;88.60;;;;;;5017274;28;20030;-73
2023/06/22 00:28:07;;;;;;;13.07;8.25;;;18.50;88.10;;;;;;5015254;28;20037;-73
2023/06/22 00:30:33;;;;;;;15.30;8.38;;;18.50;87.40;;;;;;5017399;28;20465;-72
2023/06/22 00:32:59;;;;;;;14.82;8.38;;;18.50;87.60;;;;;;4999308;28;20109;-73
2023/06/22 00:35:28;;;;;;;14.60;7.93;;;18.40;86.60;;;;;;5004879;28;20031;-73
2023/06/22 00:38:00;;;;;;;16.85;8.93;;;18.30;85.70;;;;;;5014669;28;20157;-73
2023/06/22 00:40:29;;;;;;;15.43;8.48;;;18.30;85.30;;;;;;5016684;28;20060;-73
2023/06/22 00:42:55;;;;;;;13.55;8.52;;;18.20;85.10;;;;;;5016277;28;20038;-72
2023/06/22 00:45:23;;;;;;;11.82;7.90;;;18.10;84.70;;;;;;5004780;28;20446;-72
2023/06/22 00:47:52;;;;;;;16.45;8.85;;;18.10;83.90;;;;;;5007515;28;20026;-72
2023/06/22 00:50:21;;;;;;;18.27;8.77;;;18.00;83.20;;;;;;5018322;28;20029;-72
2023/06/22 00:52:56;;;;;;;15.18;8.38;;;17.90;81.70;;;;;;5016321;28;20065;-73
2023/06/22 00:55:23;;;;;;;17.35;9.35;;;17.80;81.10;;;;;;4998933;28;20034;-73
2023/06/22 00:57:49;;;;;;;16.27;8.90;;;17.70;80.50;;;;;;5016148;28;20041;-73
2023/06/22 01:00:19;;;;;;;15.93;8.90;;;17.70;79.40;;;;;;4995015;28;20026;-72
2023/06/22 01:02:51;;;;;;;15.10;8.82;;;17.70;78.30;;;;;;5007221;28;20033;-72
2023/06/22 01:05:18;;;;;;;15.60;9.20;;;17.70;78.80;;;;;;5005203;28;20040;-73
2023/06/22 01:08:23;;;;;;;12.90;8.95;;;17.60;78.70;;;;;;5015654;28;20029;-72
2023/06/22 01:10:55;;;;;;;;;;;17.50;77.70;;;;;;5003831;28;20026;-72
2023/06/22 01:13:48;;;;;;;17.13;8.93;;;17.50;77.60;;;;;;4997406;28;19964;-73
2023/06/22 01:16:25;;;;;;;15.57;9.73;;;17.40;77.30;;;;;;4997929;28;20026;-72
2023/06/22 01:18:54;;;;;;;16.00;9.02;;;17.40;76.70;;;;;;5016080;28;20030;-72
2023/06/22 01:21:23;;;;;;;17.63;9.10;;;17.30;76.30;;;;;;5008732;28;20350;-72
2023/06/22 01:23:58;;;;;;;14.63;8.77;;;17.30;75.90;;;;;;4997510;28;20054;-72
2023/06/22 01:27:02;;;;;;;17.38;8.13;;;17.30;75.20;;;;;;5015000;28;20032;-73
2023/06/22 01:29:30;;;;;;;15.52;8.10;;;17.40;75.00;;;;;;4937038;29;20053;-73
2023/06/22 01:31:57;;;;;;;15.18;9.23;;;17.30;75.10;;;;;;4999849;28;20133;-73
2023/06/22 01:34:24;;;;;;;19.42;10.02;;;17.30;74.30;;;;;;4996566;28;20476;-73
2023/06/22 01:36:52;;;;;;;13.60;9.43;;;17.30;74.10;;;;;;5007231;28;20025;-72
2023/06/22 01:39:18;;;;;;;17.13;8.75;;;17.40;73.70;;;;;;5016378;28;20037;-72
2023/06/22 01:41:44;;;;;;;17.75;10.00;;;17.40;74.20;;;;;;5015093;28;20350;-72
2023/06/22 01:44:12;;;;;;;16.92;8.90;;;17.30;74.70;;;;;;5015764;28;20041;-73
2023/06/22 01:46:39;;;;;;;14.02;8.35;;;17.20;75.00;;;;;;5015304;28;20032;-73
2023/06/22 01:49:06;;;;;;;14.55;8.77;;;17.10;74.60;;;;;;5014650;28;20414;-73
2023/06/22 01:51:32;;;;;;;15.98;8.93;;;17.10;73.40;;;;;;5013444;28;20081;-73
2023/06/22 01:53:57;;;;;;;14.13;8.55;;;17.10;72.40;;;;;;5015271;28;20105;-72
2023/06/22 01:56:23;;;;;;;15.70;8.80;;;17.10;73.00;;;;;;5016878;28;20064;-73
2023/06/22 01:59:12;;;;;;;14.60;8.52;;;17.00;73.40;;;;;;5015626;28;20033;-72
2023/06/22 02:02:02;;;;;;;19.63;9.55;;;17.00;72.30;;;;;;4957781;28;20048;-73
2023/06/22 02:04:34;;;;;;;15.52;8.82;;;17.00;71.40;;;;;;5011439;28;20034;-72
2023/06/22 02:07:03;;;;;;;13.20;7.97;;;17.00;71.00;;;;;;5010926;28;20315;-73
2023/06/22 02:09:31;;;;;;;21.52;9.75;;;17.00;71.60;;;;;;5012456;28;20053;-72
2023/06/22 02:11:58;;;;;;;16.45;9.23;;;16.90;72.10;;;;;;5010273;28;20377;-73
2023/06/22 02:14:24;;;;;;;15.23;8.93;;;16.80;72.00;;;;;;5013774;28;20080;-73
2023/06/22 02:16:51;;;;;;;16.25;8.73;;;16.70;71.80;;;;;;5007686;28;20129;-73
2023/06/22 02:19:22;;;;;;;12.77;8.40;;;16.70;70.40;;;;;;5011407;28;20022;-73
2023/06/22 02:21:47;;;;;;;16.42;9.75;;;16.70;69.80;;;;;;5011602;28;20387;-73
2023/06/22 02:24:13;;;;;;;18.77;8.73;;;16.60;69.90;;;;;;5010855;28;20069;-73
2023/06/22 02:26:42;;;;;;;15.55;9.50;;;16.60;68.90;;;;;;5012516;28;20034;-73
2023/06/22 02:29:08;;;;;;;18.63;10.48;;;16.60;67.10;;;;;;5011832;28;20058;-72
2023/06/22 02:31:33;;;;;;;16.88;10.25;;;16.70;67.20;;;;;;5011608;28;20069;-73
2023/06/22 02:33:59;;;;;;;19.60;10.77;;;16.70;67.30;;;;;;5012153;28;20076;-72
2023/06/22 02:36:26;;;;;;;15.82;9.70;;;16.70;66.90;;;;;;5009856;28;20304;-73
2023/06/22 02:38:54;;;;;;;17.55;11.13;;;16.60;66.40;;;;;;5011764;28;20030;-72
2023/06/22 02:41:19;;;;;;;16.48;10.75;;;16.70;66.00;;;;;;5011253;28;20045;-73
2023/06/22 02:43:46;;;;;;;20.17;9.75;;;16.70;66.40;;;;;;5011732;28;20084;-73
2023/06/22 02:46:13;;;;;;;22.17;10.00;;;16.60;66.40;;;;;;5011759;28;20029;-73
2023/06/22 02:48:39;;;;;;;17.73;10.30;;;16.60;66.00;;;;;;5013561;28;20443;-73
2023/06/22 02:51:04;;;;;;;17.20;9.23;;;16.60;66.30;;;;;;5010915;28;20026;-73
2023/06/22 02:53:30;;;;;;;19.38;10.38;;;16.60;66.40;;;;;;5010743;28;20072;-72
2023/06/22 02:55:56;;;;;;;17.25;9.82;;;16.60;66.30;;;;;;5014557;28;20330;-73
2023/06/22 02:58:21;;;;;;;16.17;8.82;;;16.60;66.30;;;;;;5011925;28;20311;-73
2023/06/22 03:00:47;;;;;;;19.02;8.85;;;16.60;66.90;;;;;;5012916;28;20179;-73
2023/06/22 03:03:12;;;;;;;14.02;8.27;;;16.50;66.50;;;;;;5012853;28;20436;-73
2023/06/22 03:05:40;;;;;;;21.73;8.75;;;16.50;67.00;;;;;;5014726;28;20058;-73
2023/06/22 03:08:05;;;;;;;15.80;8.88;;;16.50;67.30;;;;;;5011565;28;20026;-73
2023/06/22 03:10:31;;;;;;;16.08;9.45;;;16.40;67.50;;;;;;5014041;28;20460;-73
2023/06/22 03:12:56;;;;;;;13.68;8.90;;;16.40;67.80;;;;;;5004790;28;20308;-73
2023/06/22 03:15:22;;;;;;;15.57;9.32;;;16.30;68.10;;;;;;5015760;28;20406;-73
2023/06/22 03:17:50;;;;;;;12.25;8.63;;;16.30;68.10;;;;;;5015111;28;20025;-73
2023/06/22 03:20:16;;;;;;;15.15;9.05;;;16.20;67.70;;;;;;5013726;28;20053;-73
2023/06/22 03:22:42;;;;;;;16.02;9.30;;;16.10;67.30;;;;;;5009178;28;20061;-73
2023/06/22 03:25:13;;;;;;;15.15;9.65;;;16.10;66.60;;;;;;4998410;28;20323;-73
2023/06/22 03:27:42;;;;;;;18.13;10.25;;;16.10;66.10;;;;;;5008574;28;20064;-73
2023/06/22 03:30:10;;;;;;;18.77;10.00;;;16.10;65.10;;;;;;5014817;28;20365;-73
2023/06/22 03:32:36;;;;;;;17.95;9.75;;;16.20;64.30;;;;;;5014817;28;20034;-73
2023/06/22 03:35:02;;;;;;;19.17;11.15;;;16.20;64.60;;;;;;5028370;28;20034;-73
2023/06/22 03:37:27;;;;;;;17.42;10.13;;;16.20;64.50;;;;;;5014403;28;20050;-73
2023/06/22 03:39:53;;;;;;;15.60;9.45;;;16.20;64.40;;;;;;5014435;28;20033;-73
2023/06/22 03:42:19;;;;;;;18.30;9.52;;;16.20;64.10;;;;;;5000796;28;20049;-73
2023/06/22 03:44:45;;;;;;;15.80;10.13;;;16.30;63.80;;;;;;4995321;28;20418;-73
2023/06/22 03:47:10;;;;;;;13.82;9.25;;;16.40;64.20;;;;;;5014455;28;20034;-73
2023/06/22 03:49:36;;;;;;;14.20;8.77;;;16.40;64.80;;;;;;5012174;28;20439;-73
2023/06/22 03:52:02;;;;;;;19.20;9.48;;;16.50;64.70;;;;;;5010611;28;20046;-73
2023/06/22 03:54:31;;;;;;;17.45;9.68;;;16.50;65.00;;;;;;5011516;28;20092;-73
2023/06/22 03:56:58;;;;;;;17.83;9.45;;;16.50;65.90;;;;;;5013437;28;20105;-73
2023/06/22 03:59:23;;;;;;;16.42;9.57;;;16.60;65.90;;;;;;5013897;28;20033;-74
2023/06/22 04:01:50;;;;;;;14.20;8.85;;;16.60;66.90;;;;;;5000116;28;20038;-73
2023/06/22 04:04:16;;;;;;;16.33;9.10;;;16.60;67.10;;;;;;4997939;28;20025;-73
2023/06/22 04:06:41;;;;;;;15.85;8.57;;;16.60;67.50;;;;;;5015930;28;20418;-73
2023/06/22 04:09:07;;;;;;;18.00;8.82;;;16.60;68.00;;;;;;5000650;28;20033;-73
2023/06/22 04:11:35;;;;;;;17.02;8.80;;;16.70;67.60;;;;;;5012943;28;20327;-73
2023/06/22 04:14:01;;;;;;;12.13;7.85;;;16.80;68.20;;;;;;5021870;28;20208;-73
2023/06/22 04:16:30;;;;;;;15.20;7.55;;;16.80;68.80;;;;;;5017803;28;20330;-73
2023/06/22 04:18:57;;;;;;;14.68;7.85;;;16.90;69.00;;;;;;4999874;28;20335;-73
2023/06/22 04:21:23;;;;;;;13.68;7.30;;;16.90;70.00;;;;;;5014925;28;20034;-73
2023/06/22 04:23:48;;;;;;;14.50;7.20;;;17.00;71.00;;;;;;5017016;28;20092;-73
2023/06/22 04:26:17;;;;;;;14.45;7.78;;;17.00;71.90;;;;;;5015909;28;20334;-73
2023/06/22 04:28:42;;;;;;;11.07;7.30;;;17.10;72.60;;;;;;5013201;28;20030;-73
2023/06/22 04:31:08;;;;;;;10.88;6.80;;;17.10;72.70;;;;;;5017961;28;20080;-73
2023/06/22 04:33:33;;;;;;;15.25;7.35;;;17.20;73.50;;;;;;5005377;28;20026;-73
2023/06/22 04:36:02;;;;;;;16.30;7.15;;;17.20;75.10;;;;;;5014256;28;20374;-73
2023/06/22 04:38:27;;;;;;;16.08;8.45;;;17.20;76.50;;;;;;5016543;28;20141;-73
2023/06/22 04:40:53;;;;;;;13.82;7.28;;;17.20;76.80;;;;;;5000876;28;20390;-73
2023/06/22 04:43:19;;;;;;;14.38;7.60;;;17.20;78.20;;;;;;5017882;28;20033;-73
2023/06/22 04:45:44;;;;;;;16.77;7.97;;;17.30;78.20;;;;;;5017680;28;20045;-73
2023/06/22 04:48:15;;;;;;;13.32;7.35;;;17.40;78.40;;;;;;5002679;28;20050;-73
2023/06/22 04:50:41;;;;;;;16.65;8.98;;;17.50;78.50;;;;;;5017075;28;20430;-73
2023/06/22 04:53:09;;;;;;;17.98;8.27;;;17.60;79.50;;;;;;5013023;28;20065;-73
2023/06/22 04:55:37;;;;;;;15.68;8.75;;;17.60;80.30;;;;;;5012789;28;20080;-73
2023/06/22 04:58:04;;;;;;;15.65;8.73;;;17.70;80.80;;;;;;5016843;28;20037;-73
2023/06/22 05:00:31;;;;;;;19.23;8.25;;;17.80;81.80;;;;;;5016513;28;20018;-73
2023/06/22 05:02:57;;;;;;;15.00;8.32;;;17.90;82.20;;;;;;5004186;28;20057;-73
2023/06/22 05:05:23;;;;;;;12.40;7.63;;;18.00;83.90;;;;;;5010693;28;20105;-73
2023/06/22 05:07:52;;;;;;;11.65;6.80;;;18.00;84.50;;;;;;5003407;28;20099;-73
2023/06/22 05:10:19;;;;;;;11.65;7.80;;;18.10;84.40;;;;;;4999116;28;20032;-73
2023/06/22 05:12:44;;;;;;;11.02;7.13;;;18.30;85.20;;;;;;5016748;28;20021;-73
2023/06/22 05:15:10;;;;;;;14.25;7.05;;;18.40;85.90;;;;;;5008799;28;20042;-73
2023/06/22 05:17:42;;;;;;;11.48;7.22;;;18.60;87.20;;;;;;5010462;28;20026;-73
2023/06/22 05:20:12;;;;;;;14.35;7.68;;;18.70;88.60;;;;;;5005818;28;20032;-73
2023/06/22 05:22:38;;;;;;;12.57;6.93;;;19.00;89.70;;;;;;5015745;28;20032;-73
2023/06/22 05:25:09;;;;;;;14.23;7.80;;;19.20;91.10;;;;;;5015504;28;20119;-73
2023/06/22 05:27:39;;;;;;;15.13;8.02;;;19.40;92.70;;;;;;5014016;28;20489;-74
2023/06/22 05:30:08;;;;;;;11.90;7.18;;;19.50;93.40;;;;;;5015899;28;20337;-74
2023/06/22 05:32:33;;;;;;;13.93;6.53;;;19.70;93.90;;;;;;5006265;28;20038;-73
2023/06/22 05:34:59;;;;;;;16.08;7.13;;;19.90;94.90;;;;;;4998725;28;20030;-74
2023/06/22 05:37:26;;;;;;;13.38;7.05;;;20.10;95.60;;;;;;5011712;28;20018;-74
2023/06/22 05:39:51;;;;;;;15.23;7.05;;;20.20;95.60;;;;;;5016773;28;20029;-74
2023/06/22 05:42:17;;;;;;;11.50;6.32;;;20.30;95.50;;;;;;5014067;28;20119;-74
2023/06/22 05:44:42;;;;;;;13.98;6.50;;;20.50;95.80;;;;;;5013313;28;20037;-74
2023/06/22 05:47:08;;;;;;;14.40;7.07;;;20.70;96.90;;;;;;5013955;28;20026;-74
2023/06/22 05:49:34;;;;;;;14.35;8.05;;;20.90;96.90;;;;;;5014215;28;20041;-73
2023/06/22 05:51:59;;;;;;;15.02;7.80;;;20.90;96.80;;;;;;5012979;28;20034;-74
2023/06/22 05:54:27;;;;;;;14.55;7.35;;;20.90;96.50;;;;;;4995257;28;20034;-74
2023/06/22 05:56:52;;;;;;;10.57;7.00;;;21.00;96.20;;;;;;5007749;28;20113;-74
2023/06/22 05:59:19;;;;;;;17.98;9.20;;;21.00;95.60;;;;;;5010649;28;20097;-74
2023/06/22 06:01:44;;;;;;;13.27;8.02;;;20.90;96.20;;;;;;5006984;28;20035;-74
2023/06/22 06:04:10;;;;;;;15.75;8.63;;;20.90;95.80;;;;;;5012526;28;20034;-74
2023/06/22 06:06:37;;;;;;;15.60;9.15;;;21.00;96.30;;;;;;5011855;28;20104;-74
2023/06/22 06:09:07;;;;;;;15.23;8.13;;;21.20;96.80;;;;;;5007950;28;20460;-74
2023/06/22 06:11:33;;;;;;;12.18;7.78;;;21.30;96.40;;;;;;5007297;28;20022;-74
2023/06/22 06:13:58;;;;;;;13.75;8.57;;;21.40;96.40;;;;;;5010204;28;20318;-74
2023/06/22 06:16:24;;;;;;;17.52;9.45;;;21.60;96.70;;;;;;5009946;28;20411;-74
2023/06/22 06:18:50;;;;;;;18.30;8.18;;;21.70;96.60;;;;;;5014564;28;20026;-74
2023/06/22 06:21:16;;;;;;;15.52;7.97;;;21.80;96.70;;;;;;5015049;28;20030;-73
2023/06/22 06:23:42;;;;;;;16.83;8.43;;;22.00;96.60;;;;;;5009181;28;20038;-74
2023/06/22 06:26:08;;;;;;;12.55;6.40;;;22.00;97.00;;;;;;4996837;28;20037;-74
2023/06/22 06:28:35;;;;;;;14.88;7.22;;;22.10;96.20;;;;;;5014993;28;20355;-74
2023/06/22 06:31:00;;;;;;;15.27;6.45;;;22.30;95.40;;;;;;5016243;28;20022;-73
2023/06/22 06:33:26;;;;;;;15.68;7.20;;;22.40;95.20;;;;;;5012806;28;20410;-73
2023/06/22 06:35:52;;;;;;;14.38;7.10;;;22.60;94.70;;;;;;5012722;28;20030;-73
2023/06/22 06:38:17;;;;;;;14.13;6.53;;;22.60;94.20;;;;;;5007124;28;20062;-73
2023/06/22 06:40:44;;;;;;;11.57;6.93;;;22.70;94.20;;;;;;5011801;28;20030;-73
2023/06/22 06:43:10;;;;;;;10.85;6.30;;;22.80;93.90;;;;;;5010695;28;20454;-73
2023/06/22 06:45:36;;;;;;;15.98;6.88;;;22.90;93.90;;;;;;5015295;28;20110;-73
2023/06/22 06:48:01;;;;;;;14.43;5.80;;;23.10;93.30;;;;;;5013563;28;20042;-74
2023/06/22 06:50:30;;;;;;;13.00;6.18;;;23.30;93.30;;;;;;5015532;28;20432;-73
2023/06/22 06:52:59;;;;;;;13.20;6.18;;;23.70;92.50;;;;;;5014073;28;20029;-74
2023/06/22 06:55:25;;;;;;;15.75;7.18;;;23.80;91.70;;;;;;5013272;28;20418;-73
2023/06/22 06:57:52;;;;;;;13.68;6.10;;;23.70;92.60;;;;;;5015408;28;20052;-74
2023/06/22 07:00:18;;;;;;;12.80;7.03;;;23.80;91.50;;;;;;5006268;28;20030;-73
2023/06/22 07:02:45;;;;;;;12.77;6.65;;;23.80;93.00;;;;;;5013578;28;20030;-74
2023/06/22 07:05:11;;;;;;;15.38;7.35;;;23.80;93.30;;;;;;4997625;28;20060;-74
2023/06/22 07:07:38;;;;;;;16.52;6.78;;;24.10;92.70;;;;;;4996005;28;20578;-74
2023/06/22 07:10:05;;;;;;;12.80;6.93;;;24.00;93.10;;;;;;5012932;28;20112;-74
2023/06/22 07:12:31;;;;;;;13.57;6.78;;;24.10;93.10;;;;;;5014327;28;20037;-74
2023/06/22 07:15:26;;;;;;;14.00;6.85;;;24.20;92.70;;;;;;5006323;28;20026;-74
2023/06/22 07:17:51;;;;;;;11.02;7.45;;;24.20;92.90;;;;;;4985995;28;20050;-74
2023/06/22 07:20:19;;;;;;;16.42;7.30;;;24.10;92.90;;;;;;5012545;28;20036;-73
2023/06/22 07:22:44;;;;;;;14.23;6.60;;;24.40;92.70;;;;;;4995175;28;20027;-74
2023/06/22 07:25:14;;;;;;;15.38;7.13;;;24.90;90.60;;;;;;5009383;28;20022;-74
2023/06/22 07:27:43;;;;;;;13.18;5.80;;;25.60;88.30;;;;;;5015738;28;20307;-74
2023/06/22 07:30:10;;;;;;;11.82;6.13;;;26.20;86.70;;;;;;5014204;28;20108;-74
2023/06/22 07:32:36;;;;;;;16.40;6.40;;;26.90;83.70;;;;;;4999084;28;20032;-74
2023/06/22 07:35:02;;;;;;;12.88;5.82;;;27.70;81.80;;;;;;5016910;28;20116;-74
2023/06/22 07:37:28;;;;;;;12.55;6.13;;;28.00;82.10;;;;;;5012112;28;20097;-74
2023/06/22 07:39:58;;;;;;;16.25;6.15;;;28.50;79.30;;;;;;5017542;28;20025;-74
2023/06/22 07:42:25;;;;;;;12.32;4.90;;;28.90;79.00;;;;;;5017129;28;20485;-74
2023/06/22 07:44:50;;;;;;;11.02;5.65;;;29.10;78.20;;;;;;5016969;28;20042;-74
2023/06/22 07:47:19;;;;;;;13.60;5.78;;;29.40;77.90;;;;;;5013287;28;20125;-74
2023/06/22 07:49:45;;;;;;;15.85;5.63;;;29.30;77.30;;;;;;5013142;28;20064;-74
2023/06/22 07:52:10;;;;;;;11.93;5.75;;;29.50;76.10;;;;;;5009949;28;20074;-74
2023/06/22 07:54:36;;;;;;;14.57;5.90;;;29.70;75.00;;;;;;5016698;28;20026;-74
2023/06/22 07:57:02;;;;;;;12.55;5.28;;;30.20;74.50;;;;;;5019349;28;20022;-73
2023/06/22 07:59:27;;;;;;;11.45;5.32;;;30.80;73.40;;;;;;5017753;28;20034;-73
2023/06/22 08:01:54;;;;;;;13.57;6.68;;;30.70;73.60;;;;;;5018368;28;20026;-73
2023/06/22 08:04:20;;;;;;;16.13;5.65;;;30.70;73.30;;;;;;5015853;28;20366;-73
2023/06/22 08:06:45;;;;;;;12.63;5.70;;;31.00;72.80;;;;;;4993340;28;20076;-73
2023/06/22 08:09:12;;;;;;;11.32;5.80;;;31.10;71.60;;;;;;4998615;28;20392;-75
2023/06/22 08:11:37;;;;;;;13.57;6.50;;;30.90;74.60;;;;;;5007446;28;20449;-73
2023/06/22 08:14:03;;;;;;;12.82;6.40;;;30.70;75.50;;;;;;5018332;28;20025;-73
2023/06/22 08:16:29;;;;;;;14.57;6.35;;;30.90;75.30;;;;;;5014145;28;20065;-73
2023/06/22 08:18:55;;;;;;;14.30;6.25;;;31.10;75.10;;;;;;5017880;28;20026;-73
2023/06/22 08:21:20;;;;;;;11.75;6.68;;;30.90;75.30;;;;;;5014928;28;20319;-73
2023/06/22 08:23:46;;;;;;;13.52;6.75;;;30.80;75.40;;;;;;5018072;28;20073;-73
2023/06/22 08:26:11;;;;;;;13.77;7.43;;;30.40;75.70;;;;;;5018315;28;20341;-73
2023/06/22 08:28:37;;;;;;;12.55;7.20;;;30.00;77.00;;;;;;5018458;28;20482;-74
2023/06/22 08:31:03;;;;;;;16.20;8.25;;;29.70;76.40;;;;;;5017323;28;20528;-73
2023/06/22 08:33:30;;;;;;;14.35;6.97;;;28.50;79.70;;;;;;5013608;28;20045;-73
2023/06/22 08:35:56;;;;;;;14.13;6.97;;;27.90;81.60;;;;;;5018162;28;20022;-73
2023/06/22 08:38:22;;;;;;;14.77;7.97;;;28.50;80.70;;;;;;5009280;28;20037;-73
2023/06/22 08:40:47;;;;;;;12.98;7.32;;;28.50;79.60;;;;;;5017508;28;20018;-73
2023/06/22 08:43:14;;;;;;;19.20;8.13;;;28.00;81.10;;;;;;5015650;28;20099;-73
2023/06/22 08:45:39;;;;;;;18.05;7.70;;;28.30;80.50;;;;;;5009023;28;20360;-74
2023/06/22 08:48:05;;;;;;;17.77;7.78;;;28.90;78.80;;;;;;5014057;28;20050;-73
2023/06/22 08:50:31;;;;;;;13.05;6.80;;;29.50;77.40;;;;;;5018279;28;20038;-74
2023/06/22 08:52:56;;;;;;;12.98;6.18;;;30.00;76.00;;;;;;5015025;28;20120;-73
2023/06/22 08:55:22;;;;;;;11.45;7.22;;;30.70;74.00;;;;;;5016862;28;20576;-73
2023/06/22 08:57:47;;;;;;;13.27;6.55;;;31.60;71.90;;;;;;5013340;28;20018;-74
2023/06/22 09:00:17;;;;;;;17.20;6.95;;;31.90;72.10;;;;;;5016802;28;20049;-73
2023/06/22 09:02:44;;;;;;;12.60;6.50;;;31.70;71.00;;;;;;5014858;28;20049;-73
2023/06/22 09:05:10;;;;;;;15.70;6.22;;;31.80;71.90;;;;;;5015910;28;20029;-74
2023/06/22 09:07:35;;;;;;;14.90;6.25;;;32.40;70.80;;;;;;5014097;28;20053;-73
2023/06/22 09:10:01;;;;;;;16.33;6.10;;;32.30;70.50;;;;;;5015506;28;20062;-74
2023/06/22 09:12:27;;;;;;;13.98;6.30;;;31.80;71.90;;;;;;4997683;28;20053;-74
2023/06/22 09:14:53;;;;;;;13.93;5.78;;;31.90;71.20;;;;;;5012938;28;20046;-74
2023/06/22 09:17:19;;;;;;;15.38;6.03;;;31.70;72.00;;;;;;4997715;28;20340;-74
2023/06/22 09:19:44;;;;;;;11.32;5.80;;;31.80;72.00;;;;;;5014267;28;20073;-74
2023/06/22 09:22:10;;;;;;;14.18;6.07;;;31.60;72.20;;;;;;5016172;28;20116;-74
2023/06/22 09:24:35;;;;;;;17.27;6.40;;;31.70;72.00;;;;;;5016980;28;20266;-73
2023/06/22 09:27:01;;;;;;;15.00;6.65;;;32.10;72.00;;;;;;5017674;28;20129;-73
2023/06/22 09:29:26;;;;;;;12.55;6.85;;;32.30;70.80;;;;;;5017880;28;20041;-71
2023/06/22 09:31:55;;;;;;;13.02;5.90;;;32.70;70.00;;;;;;5015235;28;20495;-72
2023/06/22 09:34:21;;;;;;;12.50;6.05;;;32.90;69.40;;;;;;5011117;28;20423;-71
2023/06/22 09:36:47;;;;;;;17.95;6.88;;;33.20;68.40;;;;;;5013484;28;20060;-72
2023/06/22 09:39:12;;;;;;;13.40;6.05;;;34.10;68.20;;;;;;5018897;28;20030;-72
2023/06/22 09:41:38;;;;;;;12.68;5.93;;;35.10;65.60;;;;;;5005652;28;20112;-73
2023/06/22 09:44:04;;;;;;;10.45;5.32;;;35.50;65.70;;;;;;5014236;28;20033;-73
2023/06/22 09:46:32;;;;;;;16.88;6.43;;;36.10;64.80;;;;;;5012654;28;20108;-74
2023/06/22 09:48:58;;;;;;;14.57;6.00;;;36.00;63.60;;;;;;5003084;28;20026;-73
2023/06/22 09:51:24;;;;;;;13.40;5.47;;;35.40;65.00;;;;;;5001449;28;20327;-73
2023/06/22 09:53:50;;;;;;;16.35;6.25;;;34.90;65.30;;;;;;5009713;28;20052;-73
2023/06/22 09:56:16;;;;;;;13.93;6.47;;;34.60;66.40;;;;;;5001624;28;20025;-73
2023/06/22 09:58:43;;;;;;;12.20;5.65;;;34.60;67.00;;;;;;5016689;28;20323;-74
2023/06/22 10:01:08;;;;;;;10.77;5.43;;;34.80;65.60;;;;;;5015440;28;20033;-73
2023/06/22 10:03:34;;;;;;;12.68;6.15;;;34.50;65.90;;;;;;5015699;28;20030;-73
2023/06/22 10:05:59;;;;;;;12.30;5.72;;;33.70;67.00;;;;;;5015778;28;20068;-73
2023/06/22 10:08:25;;;;;;;13.00;5.38;;;33.50;68.70;;;;;;5011542;28;20052;-74
2023/06/22 10:10:51;;;;;;;15.98;6.47;;;34.40;65.90;;;;;;5007615;28;20438;-74
2023/06/22 10:13:16;;;;;;;15.07;5.75;;;35.20;66.60;;;;;;5002391;28;20042;-73
2023/06/22 10:15:42;;;;;;;14.73;5.78;;;35.20;65.30;;;;;;5004839;28;20030;-74
2023/06/22 10:18:08;;;;;;;13.98;6.10;;;36.00;64.40;;;;;;5006835;28;20330;-73
2023/06/22 10:20:35;;;;;;;11.43;5.70;;;36.00;63.00;;;;;;4999144;28;20038;-74
2023/06/22 10:23:01;;;;;;;14.18;6.07;;;36.00;63.00;;;;;;5004097;28;20034;-74
2023/06/22 10:25:27;;;;;;;12.52;6.03;;;36.70;63.40;;;;;;5015324;28;20018;-74
2023/06/22 10:27:53;;;;;;;12.43;5.50;;;36.70;63.30;;;;;;5016011;28;20037;-74
2023/06/22 10:30:18;;;;;;;16.35;5.88;;;36.70;63.90;;;;;;5007766;28;20042;-74
2023/06/22 10:32:44;;;;;;;10.70;5.15;;;36.40;61.20;;;;;;5012611;28;20040;-74
2023/06/22 10:35:16;;;;;;;12.82;6.03;;;36.50;63.90;;;;;;5015405;28;20022;-74
2023/06/22 10:37:46;;;;;;;14.23;6.23;;;36.30;64.30;;;;;;5015281;28;20021;-74
2023/06/22 10:40:13;;;;;;;14.93;5.97;;;35.10;66.80;;;;;;5008435;28;20101;-74
2023/06/22 10:42:39;;;;;;;13.30;5.63;;;34.10;67.70;;;;;;4979445;28;20481;-74
2023/06/22 10:45:05;;;;;;;14.88;5.78;;;33.90;68.70;;;;;;5002046;28;20030;-74
2023/06/22 10:47:30;;;;;;;14.32;6.35;;;34.20;67.60;;;;;;5016079;28;20026;-74
2023/06/22 10:49:56;;;;;;;13.85;6.63;;;34.00;68.80;;;;;;5016662;28;20083;-74
2023/06/22 10:52:21;;;;;;;15.35;6.68;;;33.60;70.80;;;;;;5014333;28;20049;-73
2023/06/22 10:54:47;;;;;;;10.40;5.32;;;33.30;72.30;;;;;;5016360;28;20022;-74
2023/06/22 10:57:12;;;;;;;13.50;6.38;;;33.70;70.70;;;;;;4999783;28;20088;-74
2023/06/22 10:59:38;;;;;;;14.63;7.40;;;34.60;69.10;;;;;;5008930;28;20037;-74
2023/06/22 11:02:03;;;;;;;15.63;6.40;;;34.80;68.20;;;;;;5003901;28;20038;-73
2023/06/22 11:04:29;;;;;;;12.30;6.05;;;34.30;69.10;;;;;;5016411;28;20026;-74
2023/06/22 11:06:56;;;;;;;15.18;6.80;;;33.90;70.90;;;;;;5001560;28;20038;-73
2023/06/22 11:09:21;;;;;;;14.27;7.05;;;33.60;70.70;;;;;;4996496;28;20046;-74
2023/06/22 11:11:48;;;;;;;16.17;6.25;;;33.70;70.50;;;;;;5001442;28;20048;-74
2023/06/22 11:14:13;;;;;;;10.68;5.72;;;33.50;73.00;;;;;;5015910;28;20037;-73
2023/06/22 11:16:39;;;;;;;12.63;5.65;;;34.20;70.30;;;;;;5009892;28;20431;-74
2023/06/22 11:19:05;;;;;;;16.05;6.18;;;34.90;67.40;;;;;;5014497;28;20300;-74
2023/06/22 11:21:31;;;;;;;14.07;5.80;;;35.50;65.50;;;;;;5013180;28;20030;-74
2023/06/22 11:23:57;;;;;;;15.07;5.72;;;35.90;65.40;;;;;;5006442;28;20033;-73
2023/06/22 11:26:22;;;;;;;17.10;6.10;;;36.30;63.20;;;;;;5011607;28;20084;-73
2023/06/22 11:28:48;;;;;;;13.15;6.03;;;36.40;64.20;;;;;;4992249;28;20041;-73
2023/06/22 11:31:14;;;;;;;13.02;6.10;;;35.80;64.10;;;;;;5015110;28;20089;-73
2023/06/22 11:33:40;;;;;;;11.60;6.28;;;34.50;67.80;;;;;;5014358;28;20113;-73
2023/06/22 11:36:05;;;;;;;16.42;6.63;;;33.40;71.80;;;;;;5015247;28;20108;-73
2023/06/22 11:38:31;;;;;;;12.30;7.00;;;33.10;72.20;;;;;;5014702;28;20018;-73
2023/06/22 11:40:58;;;;;;;13.20;6.68;;;33.40;72.70;;;;;;5013331;28;20030;-73
2023/06/22 11:43:24;;;;;;;16.20;7.13;;;33.40;70.60;;;;;;5015928;28;20365;-73
2023/06/22 11:45:50;;;;;;;14.18;7.07;;;33.70;70.10;;;;;;5012617;28;20026;-73
2023/06/22 11:48:16;;;;;;;15.65;6.53;;;34.20;70.70;;;;;;4997642;28;20030;-73
2023/06/22 11:50:41;;;;;;;16.13;7.10;;;34.90;68.20;;;;;;5002786;28;20036;-73
2023/06/22 11:53:07;;;;;;;13.23;7.07;;;35.00;68.40;;;;;;5014619;28;20113;-73
2023/06/22 11:55:32;;;;;;;11.25;6.68;;;34.00;70.10;;;;;;5010596;28;20094;-73
2023/06/22 11:58:00;;;;;;;16.67;6.72;;;33.50;72.30;;;;;;4995993;28;20023;-73
2023/06/22 12:00:29;;;;;;;14.40;7.40;;;33.50;72.30;;;;;;4998400;28;20018;-74
2023/06/22 12:02:56;;;;;;;15.00;6.97;;;33.20;73.40;;;;;;5014588;28;20033;-73
2023/06/22 12:05:22;;;;;;;15.05;7.10;;;33.00;73.80;;;;;;5015598;28;20108;-71
2023/06/22 12:07:48;;;;;;;16.88;6.97;;;33.00;74.10;;;;;;5013585;28;20490;-74
2023/06/22 12:10:14;;;;;;;20.65;6.53;;;33.00;74.00;;;;;;5014245;28;20113;-74
2023/06/22 12:12:39;;;;;;;15.07;7.30;;;32.70;74.40;;;;;;5015504;28;20110;-74
2023/06/22 12:15:05;;;;;;;17.35;7.93;;;31.60;76.20;;;;;;5011037;28;20319;-74
2023/06/22 12:17:31;;;;;;;17.00;8.15;;;30.60;78.80;;;;;;5014641;28;20080;-73
2023/06/22 12:19:57;;;;;;;15.65;7.68;;;30.00;80.90;;;;;;5018646;28;20086;-73
2023/06/22 12:22:22;;;;;;;12.98;7.10;;;30.00;81.20;;;;;;5016746;28;20053;-73
2023/06/22 12:24:48;;;;;;;16.70;7.10;;;30.00;80.40;;;;;;5016658;28;20052;-72
2023/06/22 12:27:16;;;;;;;14.18;6.55;;;30.00;80.10;;;;;;5018117;28;20034;-71
2023/06/22 12:29:41;;;;;;;17.75;7.40;;;30.20;80.20;;;;;;5018948;28;20109;-72
2023/06/22 12:32:07;;;;;;;14.18;6.80;;;30.00;79.80;;;;;;5013793;28;20494;-73
2023/06/22 12:34:33;;;;;;;13.30;6.93;;;30.30;80.00;;;;;;5017801;28;20034;-73